Time;durP1;ratioP1;P1;durP2;ratioP2;P2;SDS_P1;SDS_P2;PMS_P1;PMS_P2;Temp;Humidity;BMP_temperature;BMP_pressure;BME280_temperature;BME280_humidity;BME280_pressure;Samples;Min_cycle;Max_cycle;Signal;HPM_P1;HPM_P2
2022/10/18 00:01:45;;;;;;;37.03;20.72;;;;;;;7.18;100.00;99152.83;1749355;82;21053;-80
2022/10/18 00:04:10;;;;;;;37.25;21.62;;;;;;;7.16;100.00;99149.55;1748971;82;20907;-78
2022/10/18 00:06:37;;;;;;;35.00;20.70;;;;;;;7.14;100.00;99140.88;1748843;82;20982;-81
2022/10/18 00:09:03;;;;;;;33.20;19.12;;;;;;;7.08;100.00;99150.16;1748982;81;20884;-80
2022/10/18 00:11:29;;;;;;;36.63;20.27;;;;;;;7.05;100.00;99143.08;1749222;82;20991;-78
2022/10/18 00:13:56;;;;;;;37.10;22.10;;;;;;;7.04;100.00;99142.78;1730686;82;21078;-78
2022/10/18 00:16:22;;;;;;;37.33;20.32;;;;;;;6.99;100.00;99138.06;1757411;81;21036;-78
2022/10/18 00:18:47;;;;;;;32.90;20.75;;;;;;;6.98;100.00;99145.86;1761107;81;20979;-78
2022/10/18 00:21:18;;;;;;;36.70;20.90;;;;;;;6.92;100.00;99138.71;1761208;81;20956;-78
2022/10/18 00:23:44;;;;;;;35.13;20.32;;;;;;;6.96;100.00;99133.67;1761143;81;21015;-80
2022/10/18 00:26:13;;;;;;;34.75;21.10;;;;;;;6.95;100.00;99138.77;1761194;81;21792;-78
2022/10/18 00:28:39;;;;;;;37.75;20.85;;;;;;;6.82;100.00;99127.64;1760984;81;21439;-80
2022/10/18 00:31:18;;;;;;;32.50;19.77;;;;;;;6.87;100.00;99133.17;1761241;81;21007;-80
2022/10/18 00:33:49;;;;;;;35.43;18.75;;;;;;;6.92;100.00;99136.52;1760909;81;21070;-80
2022/10/18 00:36:14;;;;;;;36.93;20.88;;;;;;;6.88;100.00;99132.65;1731766;81;21039;-79
2022/10/18 00:38:41;;;;;;;37.30;20.00;;;;;;;6.82;100.00;99131.67;1760970;81;21305;-80
2022/10/18 00:41:09;;;;;;;35.63;20.10;;;;;;;6.78;100.00;99130.50;1761166;81;20924;-80
2022/10/18 00:43:56;;;;;;;31.97;20.48;;;;;;;6.78;100.00;99130.50;1761282;81;21263;-79
2022/10/18 00:46:22;;;;;;;31.48;20.88;;;;;;;6.78;100.00;99134.55;1761148;81;21538;-77
2022/10/18 00:48:48;;;;;;;31.35;19.10;;;;;;;6.73;100.00;99131.17;1760810;81;20960;-78
2022/10/18 00:51:15;;;;;;;28.07;17.95;;;;;;;6.74;100.00;99130.65;1761289;81;20990;-80
2022/10/18 00:53:42;;;;;;;33.63;18.27;;;;;;;6.74;100.00;99122.56;1731009;81;21094;-80
2022/10/18 00:56:07;;;;;;;30.20;17.87;;;;;;;6.75;100.00;99128.25;1761166;81;21578;-78
2022/10/18 00:58:33;;;;;;;35.17;19.92;;;;;;;6.77;100.00;99123.48;1760912;81;20877;-80
2022/10/18 01:00:59;;;;;;;32.08;18.75;;;;;;;6.75;100.00;99133.63;1760918;81;22281;-80
2022/10/18 01:03:25;;;;;;;31.05;18.70;;;;;;;6.73;100.00;99116.88;1759124;81;21144;-81
2022/10/18 01:05:51;;;;;;;26.82;16.93;;;;;;;6.68;100.00;99122.97;1730655;82;21589;-78
2022/10/18 01:08:45;;;;;;;29.92;16.82;;;;;;;6.58;100.00;99121.35;1730835;82;20987;-78
2022/10/18 01:11:49;;;;;;;28.47;18.12;;;;;;;6.52;100.00;99119.55;1730744;82;21080;-80
2022/10/18 01:14:32;;;;;;;26.85;16.60;;;;;;;6.49;100.00;99122.19;1730460;82;20977;-78
2022/10/18 01:17:03;;;;;;;29.30;17.75;;;;;;;6.45;100.00;99121.50;1730741;82;21183;-80
2022/10/18 01:20:01;;;;;;;24.65;15.50;;;;;;;6.41;100.00;99126.53;1730471;82;21043;-78
2022/10/18 01:22:35;;;;;;;27.27;15.83;;;;;;;6.35;100.00;99131.46;1729426;82;21075;-80
2022/10/18 01:25:15;;;;;;;27.22;16.67;;;;;;;6.33;100.00;99127.36;1730767;82;21027;-80
2022/10/18 01:28:10;;;;;;;33.08;19.60;;;;;;;6.31;100.00;99132.13;1730711;82;21054;-80
2022/10/18 01:30:47;;;;;;;29.20;16.80;;;;;;;6.28;100.00;99132.05;1730170;82;21105;-80
2022/10/18 01:33:42;;;;;;;36.88;18.32;;;;;;;6.26;100.00;99127.95;1730707;82;21023;-80
2022/10/18 01:36:21;;;;;;;36.45;18.85;;;;;;;6.25;100.00;99131.70;1730522;82;21554;-80
2022/10/18 01:38:48;;;;;;;29.75;16.45;;;;;;;6.21;100.00;99130.78;1729981;82;21015;-79
2022/10/18 01:41:14;;;;;;;29.27;16.27;;;;;;;6.19;100.00;99126.16;1730722;82;21015;-78
2022/10/18 01:43:40;;;;;;;29.40;16.82;;;;;;;6.16;100.00;99130.65;1730630;82;21103;-78
2022/10/18 01:46:06;;;;;;;29.37;16.15;;;;;;;6.12;100.00;99128.09;1730615;82;22419;-80
2022/10/18 01:48:32;;;;;;;28.52;16.12;;;;;;;6.11;100.00;99135.05;1730906;82;20995;-78
2022/10/18 01:50:58;;;;;;;34.88;16.12;;;;;;;6.07;100.00;99133.86;1655676;82;20931;-78
2022/10/18 01:53:32;;;;;;;33.13;16.05;;;;;;;6.05;100.00;99130.02;1701516;82;20971;-78
2022/10/18 01:56:32;;;;;;;28.20;16.67;;;;;;;5.99;100.00;99135.50;1730797;82;21015;-80
2022/10/18 01:59:25;;;;;;;27.85;16.27;;;;;;;5.94;100.00;99129.42;1730660;82;20936;-78
2022/10/18 02:01:56;;;;;;;27.52;16.85;;;;;;;5.90;100.00;99138.48;1730311;82;21031;-77
2022/10/18 02:04:33;;;;;;;30.55;16.40;;;;;;;5.84;100.00;99127.22;1744229;81;21185;-78
2022/10/18 02:07:35;;;;;;;25.30;14.85;;;;;;;5.85;100.00;99128.86;1761126;81;21311;-78
2022/10/18 02:10:11;;;;;;;27.58;16.97;;;;;;;5.86;100.00;99133.19;1761017;81;21237;-78
2022/10/18 02:12:40;;;;;;;28.87;15.88;;;;;;;5.85;100.00;99124.00;1760975;81;20995;-80
2022/10/18 02:15:08;;;;;;;26.97;15.72;;;;;;;5.89;100.00;99119.81;1757958;81;21442;-78
2022/10/18 02:17:34;;;;;;;26.02;15.55;;;;;;;5.85;100.00;99118.10;1751215;81;21471;-80
2022/10/18 02:20:00;;;;;;;32.10;15.68;;;;;;;5.88;100.00;99122.20;1723507;81;20985;-78
2022/10/18 02:22:29;;;;;;;28.05;14.63;;;;;;;5.80;100.00;99120.62;1751579;81;21478;-80
2022/10/18 02:24:56;;;;;;;25.90;14.95;;;;;;;5.76;100.00;99117.27;1751504;81;21010;-80
2022/10/18 02:27:21;;;;;;;29.15;15.60;;;;;;;5.71;100.00;99125.16;1751328;81;21315;-80
2022/10/18 02:29:47;;;;;;;22.87;15.32;;;;;;;5.72;100.00;99122.77;1751354;81;20953;-80
2022/10/18 02:32:58;;;;;;;22.15;14.75;;;;;;;5.72;100.00;99116.05;1751504;81;21588;-77
2022/10/18 02:35:28;;;;;;;26.65;15.18;;;;;;;5.71;100.00;99127.33;1723515;81;21185;-80
2022/10/18 02:37:54;;;;;;;28.00;16.07;;;;;;;5.67;100.00;99120.77;1751123;81;21435;-80
2022/10/18 02:40:21;;;;;;;26.20;15.18;;;;;;;5.66;100.00;99120.47;1722208;81;34484;-80
2022/10/18 02:42:50;;;;;;;28.45;14.68;;;;;;;5.65;100.00;99122.34;1751513;81;20891;-80
2022/10/18 02:45:16;;;;;;;25.43;14.38;;;;;;;5.60;100.00;99123.51;1723052;81;21473;-80
2022/10/18 02:47:42;;;;;;;26.30;12.82;;;;;;;5.61;100.00;99122.98;1751122;81;21190;-77
2022/10/18 02:50:08;;;;;;;26.17;14.93;;;;;;;5.63;100.00;99125.74;1751261;81;20960;-78
2022/10/18 02:52:34;;;;;;;26.95;15.08;;;;;;;5.65;100.00;99118.83;1751474;81;21020;-79
2022/10/18 02:55:00;;;;;;;26.12;16.02;;;;;;;5.63;100.00;99120.89;1751453;81;20906;-78
2022/10/18 02:57:26;;;;;;;32.23;18.20;;;;;;;5.61;100.00;99120.30;1751459;81;21018;-78
2022/10/18 02:59:52;;;;;;;30.08;16.93;;;;;;;5.62;100.00;99120.59;1751237;81;22014;-80
2022/10/18 03:02:18;;;;;;;29.45;17.48;;;;;;;5.64;100.00;99119.88;1751253;81;20847;-80
2022/10/18 03:04:44;;;;;;;33.42;16.97;;;;;;;5.65;100.00;99120.99;1738809;81;20920;-77
2022/10/18 03:07:10;;;;;;;26.07;14.13;;;;;;;5.69;100.00;99117.84;1730801;82;21541;-77
2022/10/18 03:09:36;;;;;;;26.07;14.73;;;;;;;5.69;100.00;99117.84;1730857;81;20880;-77
2022/10/18 03:12:02;;;;;;;23.47;14.28;;;;;;;5.63;100.00;99110.95;1730913;82;21245;-80
2022/10/18 03:14:28;;;;;;;24.87;15.25;;;;;;;5.65;100.00;99115.61;1704313;81;21070;-80
2022/10/18 03:16:54;;;;;;;23.57;14.38;;;;;;;5.63;100.00;99121.71;1761015;81;20876;-81
2022/10/18 03:19:20;;;;;;;22.80;13.35;;;;;;;5.61;100.00;99124.33;1760807;81;20889;-80
2022/10/18 03:21:46;;;;;;;19.27;12.15;;;;;;;5.60;100.00;99124.85;1760827;81;21070;-77
2022/10/18 03:24:11;;;;;;;22.93;12.63;;;;;;;5.60;100.00;99117.31;1760811;81;21073;-77
2022/10/18 03:26:37;;;;;;;19.80;12.18;;;;;;;5.59;100.00;99119.70;1760628;81;21586;-80
2022/10/18 03:29:04;;;;;;;22.17;13.25;;;;;;;5.58;100.00;99120.75;1760886;81;20982;-80
2022/10/18 03:31:30;;;;;;;22.07;13.80;;;;;;;5.56;100.00;99118.81;1760793;81;21977;-80
2022/10/18 03:33:55;;;;;;;24.18;13.95;;;;;;;5.51;100.00;99112.73;1760766;81;21036;-80
2022/10/18 03:36:21;;;;;;;20.62;12.75;;;;;;;5.48;100.00;99115.05;1760935;81;21353;-78
2022/10/18 03:38:47;;;;;;;22.95;13.55;;;;;;;5.44;100.00;99118.69;1760950;81;20920;-80
2022/10/18 03:41:13;;;;;;;25.55;14.10;;;;;;;5.42;100.00;99120.77;1760771;81;20895;-80
2022/10/18 03:43:39;;;;;;;26.85;14.28;;;;;;;5.38;100.00;99119.55;1760897;81;20876;-78
2022/10/18 03:46:05;;;;;;;27.07;15.20;;;;;;;5.35;100.00;99118.66;1760980;81;20905;-80
2022/10/18 03:48:31;;;;;;;26.40;14.65;;;;;;;5.38;100.00;99123.58;1760793;81;21328;-81
2022/10/18 03:50:57;;;;;;;23.10;14.93;;;;;;;5.37;100.00;99122.77;1760726;81;21114;-77
2022/10/18 03:53:23;;;;;;;33.05;16.87;;;;;;;5.40;100.00;99124.73;1761020;81;20967;-77
2022/10/18 03:55:53;;;;;;;22.27;13.58;;;;;;;5.37;100.00;99112.53;1760851;79;21018;-77
2022/10/18 03:58:19;;;;;;;19.07;12.03;;;;;;;5.45;100.00;99120.84;1760817;81;22171;-77
2022/10/18 04:00:45;;;;;;;24.35;13.18;;;;;;;5.47;100.00;99121.45;1760984;81;21404;-77
2022/10/18 04:03:10;;;;;;;18.67;11.15;;;;;;;5.42;100.00;99119.43;1730610;81;20952;-81
2022/10/18 04:05:36;;;;;;;35.23;13.10;;;;;;;5.38;100.00;99118.20;1731646;81;20897;-78
2022/10/18 04:08:03;;;;;;;16.73;11.53;;;;;;;5.33;100.00;99117.54;1730687;82;21019;-78
2022/10/18 04:10:29;;;;;;;22.58;13.62;;;;;;;5.29;100.00;99120.87;1730919;82;21028;-77
2022/10/18 04:12:55;;;;;;;20.55;12.10;;;;;;;5.28;100.00;99121.39;1730794;82;21909;-78
2022/10/18 04:15:21;;;;;;;18.60;11.50;;;;;;;5.28;100.00;99118.70;1742898;81;20884;-78
2022/10/18 04:17:47;;;;;;;20.92;12.47;;;;;;;5.25;100.00;99116.98;1745355;82;21648;-77
2022/10/18 04:20:12;;;;;;;22.35;12.37;;;;;;;5.22;100.00;99112.88;1768479;81;20944;-81
2022/10/18 04:22:38;;;;;;;22.80;12.30;;;;;;;5.21;100.00;99113.07;1768521;81;20967;-80
2022/10/18 04:25:05;;;;;;;21.05;13.40;;;;;;;5.16;100.00;99106.20;1745724;82;21323;-80
2022/10/18 04:27:31;;;;;;;20.77;13.72;;;;;;;5.12;100.00;99107.14;1768363;81;21003;-78
2022/10/18 04:29:57;;;;;;;18.57;12.40;;;;;;;5.14;100.00;99101.58;1768362;81;20921;-80
2022/10/18 04:32:22;;;;;;;20.82;14.78;;;;;;;5.12;100.00;99104.45;1745675;82;20893;-78
2022/10/18 04:34:48;;;;;;;26.93;14.43;;;;;;;5.17;100.00;99111.88;1768669;81;20881;-78
2022/10/18 04:37:14;;;;;;;22.15;14.07;;;;;;;5.20;100.00;99108.22;1745298;82;22034;-81
2022/10/18 04:39:45;;;;;;;25.60;13.28;;;;;;;5.23;100.00;99106.98;1768481;81;20885;-77
2022/10/18 04:42:08;;;;;;;29.23;13.62;;;;;;;5.23;100.00;99101.61;1767561;81;20996;-78
2022/10/18 04:44:34;;;;;;;29.27;13.98;;;;;;;5.25;100.00;99107.05;1745768;82;20996;-80
2022/10/18 04:47:00;;;;;;;40.03;18.42;;;;;;;5.25;100.00;99105.71;1768276;81;22264;-78
2022/10/18 04:49:26;;;;;;;52.45;21.30;;;;;;;5.25;100.00;99106.23;1745864;82;21315;-78
2022/10/18 04:51:52;;;;;;;67.58;27.50;;;;;;;5.23;100.00;99100.27;1768388;81;20916;-77
2022/10/18 04:54:17;;;;;;;46.33;20.95;;;;;;;5.23;100.00;99100.27;1745436;82;20945;-78
2022/10/18 04:56:43;;;;;;;37.17;16.87;;;;;;;5.21;100.00;99096.45;1768293;81;20888;-80
2022/10/18 04:59:09;;;;;;;41.90;19.02;;;;;;;5.25;100.00;99105.71;1745513;82;21052;-78
2022/10/18 05:01:35;;;;;;;34.27;18.82;;;;;;;5.28;100.00;99109.30;1757783;81;21080;-80
2022/10/18 05:04:01;;;;;;;27.98;12.65;;;;;;;5.33;100.00;99104.63;1755632;80;20987;-81
2022/10/18 05:06:27;;;;;;;21.15;13.05;;;;;;;5.36;100.00;99101.48;1759005;81;20884;-80
2022/10/18 05:08:53;;;;;;;23.07;13.00;;;;;;;5.40;100.00;99108.08;1749114;80;20883;-78
2022/10/18 05:11:19;;;;;;;20.85;12.58;;;;;;;5.42;100.00;99100.61;1749696;81;20916;-78
2022/10/18 05:13:45;;;;;;;20.00;12.43;;;;;;;5.45;100.00;99110.09;1719118;83;21265;-79
2022/10/18 05:16:10;;;;;;;28.25;15.18;;;;;;;5.46;100.00;99103.67;1773465;80;21548;-77
2022/10/18 05:18:36;;;;;;;25.35;14.23;;;;;;;5.44;100.00;99103.90;1792293;80;20968;-77
2022/10/18 05:21:02;;;;;;;26.75;14.55;;;;;;;5.43;100.00;99102.78;1747747;80;20928;-80
2022/10/18 05:23:28;;;;;;;25.17;14.33;;;;;;;5.32;100.00;99113.73;1730570;82;21480;-78
2022/10/18 05:25:56;;;;;;;24.25;14.60;;;;;;;5.33;100.00;99110.81;1760898;80;21154;-80
2022/10/18 05:28:23;;;;;;;25.15;13.38;;;;;;;5.33;100.00;99107.31;1791516;80;20996;-80
2022/10/18 05:30:49;;;;;;;24.60;13.58;;;;;;;5.36;100.00;99113.58;1792327;80;21015;-78
2022/10/18 05:33:15;;;;;;;29.45;14.95;;;;;;;5.37;100.00;99117.38;1736242;80;20956;-77
2022/10/18 05:35:41;;;;;;;20.88;13.43;;;;;;;5.42;100.00;99111.89;1739009;80;21651;-80
2022/10/18 05:38:07;;;;;;;26.25;13.78;;;;;;;5.41;100.00;99112.41;1723392;81;21336;-80
2022/10/18 05:40:33;;;;;;;24.77;13.53;;;;;;;5.43;100.00;99120.25;1750220;79;21098;-80
2022/10/18 05:42:59;;;;;;;30.88;13.72;;;;;;;5.44;100.00;99117.86;1747494;81;20912;-77
2022/10/18 05:45:25;;;;;;;22.15;13.62;;;;;;;5.45;100.00;99123.02;1752306;81;20951;-80
2022/10/18 05:47:51;;;;;;;24.63;12.33;;;;;;;5.46;100.00;99126.00;1755416;80;20968;-77
2022/10/18 05:50:16;;;;;;;25.23;13.43;;;;;;;5.47;100.00;99122.78;1763787;80;21125;-80
2022/10/18 05:52:42;;;;;;;29.82;15.35;;;;;;;5.50;100.00;99121.84;1736964;81;20923;-77
2022/10/18 05:55:08;;;;;;;28.73;15.55;;;;;;;5.58;100.00;99125.60;1743799;80;20971;-77
2022/10/18 05:57:34;;;;;;;27.35;14.85;;;;;;;5.69;100.00;99124.58;1742141;81;20904;-81
2022/10/18 06:00:00;;;;;;;21.75;12.80;;;;;;;5.81;100.00;99130.86;1747734;80;20898;-81
2022/10/18 06:02:26;;;;;;;31.30;17.07;;;;;;;5.93;100.00;99122.41;1733169;81;21283;-80
2022/10/18 06:04:52;;;;;;;27.87;16.48;;;;;;;6.00;100.00;99126.38;1748118;80;20901;-80
2022/10/18 06:07:18;;;;;;;24.20;14.87;;;;;;;6.10;100.00;99128.84;1757986;81;20899;-77
2022/10/18 06:09:44;;;;;;;31.57;17.55;;;;;;;6.14;100.00;99131.90;1743050;80;20945;-77
2022/10/18 06:12:10;;;;;;;35.58;18.15;;;;;;;6.18;100.00;99131.77;1760194;80;21624;-78
2022/10/18 06:14:36;;;;;;;22.85;14.50;;;;;;;6.25;100.00;99137.08;1751472;81;21007;-77
2022/10/18 06:17:02;;;;;;;19.98;12.70;;;;;;;6.27;100.00;99139.02;1746523;79;21538;-77
2022/10/18 06:19:28;;;;;;;24.75;13.65;;;;;;;6.31;100.00;99145.58;1750384;81;20984;-78
2022/10/18 06:21:54;;;;;;;29.60;14.07;;;;;;;6.32;100.00;99137.80;1780671;79;20916;-78
2022/10/18 06:24:20;;;;;;;21.90;12.90;;;;;;;6.41;100.00;99132.41;1763563;79;20989;-80
2022/10/18 06:26:46;;;;;;;22.22;13.28;;;;;;;6.54;100.00;99132.27;1753485;81;22133;-81
2022/10/18 06:29:12;;;;;;;20.75;13.10;;;;;;;6.68;100.00;99127.54;1760922;79;21078;-80
2022/10/18 06:31:38;;;;;;;20.48;14.20;;;;;;;6.73;100.00;99125.78;1754033;79;20873;-80
2022/10/18 06:34:04;;;;;;;23.52;12.93;;;;;;;6.84;100.00;99122.87;1757716;79;21652;-78
2022/10/18 06:36:30;;;;;;;19.50;13.08;;;;;;;6.97;100.00;99127.23;1753938;79;21619;-80
2022/10/18 06:38:56;;;;;;;20.62;13.22;;;;;;;7.12;100.00;99119.55;1769613;79;21172;-78
2022/10/18 06:41:22;;;;;;;23.38;15.68;;;;;;;7.27;100.00;99112.38;1773035;79;21185;-81
2022/10/18 06:43:49;;;;;;;24.37;16.95;;;;;;;7.41;100.00;99117.02;1762525;79;21009;-81
2022/10/18 06:46:15;;;;;;;27.75;19.75;;;;;;;7.62;100.00;99120.52;1769767;79;21011;-78
2022/10/18 06:48:41;;;;;;;32.03;20.40;;;;;;;7.82;100.00;99114.76;1768324;79;20964;-78
2022/10/18 06:51:07;;;;;;;27.48;17.48;;;;;;;8.09;100.00;99114.56;1757889;79;21839;-78
2022/10/18 06:53:35;;;;;;;32.20;20.20;;;;;;;8.41;100.00;99115.00;1744705;81;20967;-77
2022/10/18 06:56:05;;;;;;;33.73;21.07;;;;;;;8.51;100.00;99117.62;1761200;79;21131;-78
2022/10/18 06:58:31;;;;;;;37.83;23.80;;;;;;;8.61;100.00;99113.77;1762259;79;21241;-81
2022/10/18 07:00:57;;;;;;;26.45;18.87;;;;;;;9.02;100.00;99107.25;1753346;79;21027;-81
2022/10/18 07:03:23;;;;;;;26.95;18.25;;;;;;;10.16;100.00;99110.92;1747602;80;21417;-81
2022/10/18 07:05:49;;;;;;;23.98;18.00;;;;;;;11.30;100.00;99106.83;1750647;80;20939;-79
2022/10/18 07:08:16;;;;;;;24.57;17.15;;;;;;;12.19;100.00;99108.56;1744680;80;20995;-79
2022/10/18 07:10:41;;;;;;;25.70;16.00;;;;;;;13.02;100.00;99103.98;1751190;80;21387;-82
2022/10/18 07:13:07;;;;;;;26.97;14.45;;;;;;;13.90;100.00;99102.94;1749192;81;20976;-82
2022/10/18 07:15:37;;;;;;;20.72;12.88;;;;;;;14.89;100.00;99108.89;1733874;81;21570;-82
2022/10/18 07:18:01;;;;;;;23.77;15.40;;;;;;;15.05;100.00;99107.45;1758180;81;21068;-81
2022/10/18 07:20:27;;;;;;;19.00;13.40;;;;;;;14.42;100.00;99106.61;1768286;80;20950;-82
2022/10/18 07:22:55;;;;;;;26.20;12.53;;;;;;;13.79;100.00;99099.41;1759983;79;21140;-79
2022/10/18 07:25:21;;;;;;;28.65;15.30;;;;;;;13.12;100.00;99103.18;1766243;80;20937;-81
2022/10/18 07:27:47;;;;;;;27.10;14.85;;;;;;;12.59;100.00;99104.68;1748760;81;21224;-81
2022/10/18 07:30:13;;;;;;;31.27;15.43;;;;;;;12.26;100.00;99098.28;1744174;81;20880;-78
2022/10/18 07:32:39;;;;;;;28.60;15.23;;;;;;;11.99;100.00;99099.23;1749649;81;20905;-81
2022/10/18 07:35:06;;;;;;;24.90;14.78;;;;;;;11.80;100.00;99097.48;1751473;80;21016;-81
2022/10/18 07:37:32;;;;;;;24.77;13.90;;;;;;;11.70;100.00;99096.54;1748750;80;21031;-81
2022/10/18 07:39:57;;;;;;;23.60;12.50;;;;;;;11.60;100.00;99090.50;1754425;80;21167;-79
2022/10/18 07:42:23;;;;;;;20.37;12.18;;;;;;;11.54;100.00;99088.84;1747566;80;21147;-78
2022/10/18 07:44:49;;;;;;;21.10;12.93;;;;;;;11.49;100.00;99084.72;1752973;80;20961;-81
2022/10/18 07:47:15;;;;;;;19.98;11.95;;;;;;;11.48;100.00;99081.20;1759985;80;20875;-78
2022/10/18 07:49:41;;;;;;;18.52;11.25;;;;;;;11.52;100.00;99080.13;1750843;81;22637;-81
2022/10/18 07:52:07;;;;;;;21.27;11.53;;;;;;;11.55;100.00;99084.52;1747940;80;21224;-78
2022/10/18 07:54:33;;;;;;;17.77;11.00;;;;;;;11.57;100.00;99080.99;1740815;81;21432;-78
2022/10/18 07:57:01;;;;;;;23.07;13.32;;;;;;;11.59;100.00;99072.58;1736348;80;20895;-81
2022/10/18 07:59:27;;;;;;;15.75;9.98;;;;;;;11.66;100.00;99072.36;1734039;80;21145;-79
2022/10/18 08:01:53;;;;;;;27.42;10.35;;;;;;;11.74;100.00;99063.73;1763286;80;22112;-78
2022/10/18 08:04:19;;;;;;;16.60;10.40;;;;;;;11.84;100.00;99071.97;1738142;80;21645;-81
2022/10/18 08:06:45;;;;;;;18.17;10.60;;;;;;;11.93;100.00;99062.24;1757063;79;21039;-79
2022/10/18 08:09:11;;;;;;;14.78;9.80;;;;;;;12.04;100.00;99057.13;1776644;79;21142;-81
2022/10/18 08:11:36;;;;;;;19.17;10.15;;;;;;;12.15;100.00;99064.81;1745636;79;20877;-79
2022/10/18 08:14:02;;;;;;;12.30;8.43;;;;;;;12.22;100.00;99053.17;1717462;81;20987;-78
2022/10/18 08:16:30;;;;;;;15.45;8.80;;;;;;;12.34;100.00;99051.03;1754887;79;21053;-79
2022/10/18 08:18:57;;;;;;;23.02;8.65;;;;;;;12.53;100.00;99051.91;1754824;79;21436;-81
2022/10/18 08:21:22;;;;;;;12.95;8.00;;;;;;;12.70;100.00;99049.23;1751457;79;21030;-79
2022/10/18 08:23:48;;;;;;;12.75;8.30;;;;;;;12.94;100.00;99047.38;1747574;79;21014;-79
2022/10/18 08:26:19;;;;;;;10.93;7.42;;;;;;;14.16;100.00;99044.55;1755167;79;20983;-79
2022/10/18 08:28:45;;;;;;;9.45;7.80;;;;;;;16.89;100.00;99042.42;1749608;81;22156;-79
2022/10/18 08:31:13;;;;;;;9.90;6.25;;;;;;;19.21;98.75;99035.25;1717705;81;21048;-80
2022/10/18 08:33:39;;;;;;;9.20;6.40;;;;;;;20.73;95.11;99031.70;1748979;81;21004;-80
2022/10/18 08:36:07;;;;;;;7.62;5.78;;;;;;;19.88;95.40;99028.34;1744322;79;21035;-79
2022/10/18 08:38:34;;;;;;;10.75;6.30;;;;;;;19.30;93.95;99027.06;1746069;79;21060;-82
2022/10/18 08:41:34;;;;;;;11.83;5.67;;;;;;;18.85;92.84;99018.80;1754683;79;21314;-79
2022/10/18 08:44:27;;;;;;;10.85;6.20;;;;;;;18.40;90.68;99012.38;1734709;79;21093;-82
2022/10/18 08:47:08;;;;;;;10.63;6.08;;;;;;;17.92;89.28;99008.66;1745879;81;21034;-82
2022/10/18 08:49:45;;;;;;;7.30;5.30;;;;;;;17.53;88.84;99007.17;1725419;79;21591;-82
2022/10/18 08:52:39;;;;;;;11.33;6.15;;;;;;;17.29;89.81;99002.39;1750152;79;21031;-82
2022/10/18 08:55:35;;;;;;;17.20;15.38;;;;;;;17.13;89.34;99005.38;1722465;79;22025;-79
2022/10/18 08:58:18;;;;;;;14.68;8.40;;;;;;;16.96;90.45;99003.73;1749018;79;21097;-79
2022/10/18 09:01:17;;;;;;;13.95;6.47;;;;;;;16.85;88.70;98999.53;1750828;79;21047;-82
2022/10/18 09:04:27;;;;;;;9.48;5.85;;;;;;;16.79;89.83;98993.88;1750645;79;21275;-81
2022/10/18 09:07:27;;;;;;;11.50;5.92;;;;;;;16.80;88.55;98989.46;1761240;79;21433;-82
2022/10/18 09:10:22;;;;;;;14.53;6.35;;;;;;;16.82;87.81;98987.80;1753765;79;21276;-79
2022/10/18 09:13:12;;;;;;;9.95;5.25;;;;;;;16.84;88.34;98989.70;1756627;79;21420;-82
2022/10/18 09:16:01;;;;;;;8.00;5.75;;;;;;;16.84;87.93;98981.49;1756711;79;21082;-82
2022/10/18 09:18:56;;;;;;;7.03;5.15;;;;;;;16.87;88.53;98982.25;1765242;79;21015;-79
2022/10/18 09:21:49;;;;;;;7.55;5.42;;;;;;;16.89;87.74;98978.66;1760569;79;21110;-82
2022/10/18 09:24:38;;;;;;;11.53;4.20;;;;;;;16.95;88.19;98976.11;1766055;79;22025;-79
2022/10/18 09:27:16;;;;;;;11.50;5.55;;;;;;;17.06;86.59;98976.19;1710447;79;21118;-82
2022/10/18 09:30:15;;;;;;;8.13;4.25;;;;;;;17.14;87.09;98976.06;1755159;79;21456;-82
2022/10/18 09:32:59;;;;;;;7.12;4.15;;;;;;;17.20;84.83;98968.84;1751369;79;21031;-82
2022/10/18 09:35:44;;;;;;;8.90;4.00;;;;;;;17.26;85.82;98966.84;1756566;79;21586;-82
2022/10/18 09:38:11;;;;;;;10.98;4.62;;;;;;;17.32;84.89;98968.35;1759227;79;21293;-82
2022/10/18 09:40:56;;;;;;;8.93;4.65;;;;;;;17.57;82.06;98967.08;1754391;79;21018;-79
2022/10/18 09:43:44;;;;;;;9.40;4.47;;;;;;;17.81;80.60;98966.94;1760707;79;21579;-79
2022/10/18 09:46:10;;;;;;;8.13;4.15;;;;;;;17.91;77.48;98961.25;1751710;79;21126;-82
2022/10/18 09:48:48;;;;;;;6.00;4.42;;;;;;;17.94;79.74;98955.14;1750892;80;20968;-79
2022/10/18 09:51:21;;;;;;;8.48;4.72;;;;;;;17.95;79.97;98947.76;1749298;80;21044;-79
2022/10/18 09:54:12;;;;;;;7.05;4.12;;;;;;;17.94;78.78;98940.63;1742678;80;21015;-82
2022/10/18 09:56:51;;;;;;;6.12;3.75;;;;;;;18.02;79.51;98939.34;1746619;80;21313;-80
2022/10/18 09:59:32;;;;;;;6.03;3.80;;;;;;;18.04;78.69;98928.91;1779582;80;21579;-82
2022/10/18 10:01:58;;;;;;;6.62;4.00;;;;;;;18.06;78.66;98924.48;1765438;80;21040;-82
2022/10/18 10:04:24;;;;;;;6.22;4.05;;;;;;;18.11;78.33;98930.40;1742099;80;21718;-79
2022/10/18 10:06:51;;;;;;;8.48;4.30;;;;;;;18.14;78.09;98927.06;1782672;79;20886;-79
2022/10/18 10:09:24;;;;;;;6.53;4.22;;;;;;;18.22;76.94;98927.15;1773730;80;21053;-79
2022/10/18 10:11:50;;;;;;;7.85;4.37;;;;;;;18.29;77.23;98919.88;1721661;81;20969;-79
2022/10/18 10:14:22;;;;;;;8.58;5.28;;;;;;;18.32;75.60;98920.63;1756883;80;21173;-82
2022/10/18 10:17:04;;;;;;;6.50;3.80;;;;;;;18.35;74.12;98919.19;1747454;80;21767;-83
2022/10/18 10:19:35;;;;;;;9.10;4.72;;;;;;;18.39;69.69;98907.30;1755360;81;21047;-79
2022/10/18 10:22:05;;;;;;;7.40;4.20;;;;;;;18.45;73.65;98900.55;1751860;80;21391;-82
2022/10/18 10:24:50;;;;;;;9.65;4.83;;;;;;;18.51;73.74;98893.83;1758571;80;21449;-82
2022/10/18 10:27:42;;;;;;;6.95;4.45;;;;;;;18.50;74.34;98899.07;1750081;80;21515;-80
2022/10/18 10:30:27;;;;;;;6.00;4.62;;;;;;;18.55;74.36;98894.84;1726730;80;21275;-79
2022/10/18 10:32:54;;;;;;;5.72;4.15;;;;;;;18.60;73.59;98887.84;1765014;80;21029;-79
2022/10/18 10:35:33;;;;;;;9.68;4.08;;;;;;;18.63;74.52;98879.57;1762174;80;21036;-82
2022/10/18 10:37:59;;;;;;;6.97;4.05;;;;;;;18.68;74.03;98878.65;1724987;80;21176;-82
2022/10/18 10:40:34;;;;;;;6.03;4.42;;;;;;;18.79;73.79;98880.02;1735557;80;20987;-79
2022/10/18 10:43:08;;;;;;;9.68;4.28;;;;;;;18.83;72.72;98871.41;1749180;81;21145;-79
2022/10/18 10:45:44;;;;;;;8.38;3.87;;;;;;;18.90;71.07;98871.79;1735663;80;21029;-82
2022/10/18 10:48:14;;;;;;;7.60;4.25;;;;;;;19.08;71.14;98861.71;1742982;80;21520;-79
2022/10/18 10:51:02;;;;;;;8.15;3.50;;;;;;;19.14;70.11;98859.05;1767372;80;21019;-79
2022/10/18 10:53:37;;;;;;;5.53;3.83;;;;;;;19.20;68.18;98855.62;1761327;80;21043;-82
2022/10/18 10:56:03;;;;;;;6.83;3.75;;;;;;;19.40;67.08;98853.70;1758550;80;21294;-82
2022/10/18 10:58:36;;;;;;;8.85;4.10;;;;;;;19.51;65.14;98841.86;1764170;80;21093;-82
2022/10/18 11:01:19;;;;;;;6.83;4.60;;;;;;;19.65;61.13;98841.18;1786778;80;20980;-81
2022/10/18 11:03:50;;;;;;;5.53;3.60;;;;;;;19.79;62.48;98836.94;1746510;80;21202;-79
2022/10/18 11:06:37;;;;;;;7.80;3.05;;;;;;;19.84;61.73;98839.55;1684804;82;21016;-79
2022/10/18 11:09:11;;;;;;;7.62;3.45;;;;;;;19.97;55.86;98834.46;1761625;81;21102;-79
2022/10/18 11:11:40;;;;;;;5.55;3.52;;;;;;;20.09;58.65;98829.15;1743191;82;21031;-79
2022/10/18 11:14:09;;;;;;;;;;;;;;;20.11;59.42;98824.70;1749232;81;21080;-82
2022/10/18 11:16:40;;;;;;;7.12;3.52;;;;;;;20.22;59.51;98820.48;1752974;81;20543;-79
2022/10/18 11:19:33;;;;;;;7.12;3.33;;;;;;;20.27;58.86;98818.95;1768034;81;21069;-82
2022/10/18 11:22:00;;;;;;;7.65;4.00;;;;;;;20.30;57.62;98810.05;1743089;81;21938;-82
2022/10/18 11:24:25;;;;;;;5.28;3.52;;;;;;;20.31;58.53;98805.34;1755958;81;21098;-82
2022/10/18 11:27:06;;;;;;;5.62;4.15;;;;;;;20.30;58.55;98797.66;1754916;79;21062;-82
2022/10/18 11:30:12;;;;;;;6.58;2.77;;;;;;;20.30;57.93;98796.28;1772934;80;20929;-82
2022/10/18 11:33:06;;;;;;;6.08;3.62;;;;;;;20.28;57.13;98795.23;1754528;80;21048;-80
2022/10/18 11:35:47;;;;;;;7.95;3.80;;;;;;;20.28;56.64;98786.98;1762354;80;21424;-79
2022/10/18 11:38:39;;;;;;;4.83;3.52;;;;;;;20.24;56.77;98785.19;1736168;81;20953;-82